Time;durP1;ratioP1;P1;durP2;ratioP2;P2;SDS_P1;SDS_P2;PMS_P1;PMS_P2;Temp;Humidity;BMP_temperature;BMP_pressure;BME280_temperature;BME280_humidity;BME280_pressure;Samples;Min_cycle;Max_cycle;Signal;HPM_P1;HPM_P2
2023/05/21 03:02:28;;;;;;;6.28;4.13;;;22.20;50.60;;;;;;5058278;23;46593;-58
2023/05/21 03:04:54;;;;;;;4.50;4.10;;;22.20;50.60;;;;;;4959937;28;45192;-58
2023/05/21 03:07:20;;;;;;;3.95;3.60;;;22.20;50.60;;;;;;4927979;28;45341;-61
2023/05/21 03:09:46;;;;;;;4.18;3.78;;;22.20;50.60;;;;;;4954103;28;45157;-58
2023/05/21 03:12:11;;;;;;;4.57;3.90;;;22.20;50.60;;;;;;4977164;28;46354;-58
2023/05/21 03:14:37;;;;;;;4.35;3.95;;;22.20;50.60;;;;;;4989673;28;44744;-58
2023/05/21 03:17:06;;;;;;;4.15;3.75;;;22.20;50.60;;;;;;4967971;28;45207;-57
2023/05/21 03:19:35;;;;;;;3.60;3.30;;;22.20;50.60;;;;;;4989648;28;44998;-60
2023/05/21 03:22:02;;;;;;;4.10;3.50;;;22.10;50.50;;;;;;4977801;28;46022;-60
2023/05/21 03:24:29;;;;;;;4.03;3.65;;;22.20;50.60;;;;;;4969357;28;45058;-58
2023/05/21 03:26:55;;;;;;;4.18;3.78;;;22.20;50.60;;;;;;4946874;28;45079;-59
2023/05/21 03:29:20;;;;;;;4.13;3.72;;;22.10;50.60;;;;;;4989044;28;45022;-58
2023/05/21 03:31:46;;;;;;;3.97;3.55;;;22.20;50.60;;;;;;4981418;28;46107;-60
2023/05/21 03:34:11;;;;;;;3.97;3.58;;;22.10;50.60;;;;;;4967300;28;45238;-58
2023/05/21 03:36:37;;;;;;;4.25;3.85;;;22.20;50.60;;;;;;4980883;28;45110;-59
2023/05/21 03:39:03;;;;;;;4.53;4.13;;;22.10;50.60;;;;;;4984131;28;45001;-59
2023/05/21 03:41:28;;;;;;;4.35;3.90;;;22.20;50.60;;;;;;4961093;28;46395;-60
2023/05/21 03:43:54;;;;;;;4.18;3.80;;;22.20;50.60;;;;;;4965216;28;45424;-62
2023/05/21 03:46:20;;;;;;;4.00;3.60;;;22.10;50.60;;;;;;4957311;28;45301;-59
2023/05/21 03:48:45;;;;;;;4.18;3.80;;;22.10;50.60;;;;;;4947521;28;44902;-60
2023/05/21 03:51:12;;;;;;;4.03;3.63;;;22.10;50.70;;;;;;4957323;28;46168;-59
2023/05/21 03:53:37;;;;;;;4.13;3.72;;;22.10;50.60;;;;;;4991087;28;45190;-64
2023/05/21 03:56:03;;;;;;;3.70;3.30;;;22.10;50.60;;;;;;4950442;28;46841;-58
2023/05/21 03:58:29;;;;;;;3.55;3.25;;;22.10;50.60;;;;;;4977873;28;45382;-59
2023/05/21 04:00:55;;;;;;;4.05;3.65;;;22.10;50.60;;;;;;4950057;28;45772;-61
2023/05/21 04:03:20;;;;;;;3.90;3.55;;;22.10;50.60;;;;;;4979230;28;45524;-60
2023/05/21 04:05:46;;;;;;;3.83;3.53;;;22.10;50.60;;;;;;4973723;28;45045;-59
2023/05/21 04:08:12;;;;;;;4.25;3.85;;;22.10;50.60;;;;;;4977904;28;45085;-59
2023/05/21 04:10:37;;;;;;;3.75;3.45;;;22.10;50.60;;;;;;4976608;28;45645;-58
2023/05/21 04:13:03;;;;;;;4.00;3.58;;;22.10;50.60;;;;;;4981698;28;45094;-59
2023/05/21 04:15:29;;;;;;;3.42;3.15;;;22.10;50.70;;;;;;4972438;28;45113;-59
2023/05/21 04:17:54;;;;;;;4.18;3.45;;;22.10;50.70;;;;;;4963321;28;45067;-59
2023/05/21 04:20:20;;;;;;;3.95;3.50;;;22.10;50.70;;;;;;4974411;28;46138;-59
2023/05/21 04:22:46;;;;;;;4.13;3.72;;;22.10;50.70;;;;;;4996031;28;45461;-59
2023/05/21 04:25:11;;;;;;;4.93;3.97;;;22.10;50.70;;;;;;4976121;28;45618;-60
2023/05/21 04:27:37;;;;;;;3.95;3.65;;;22.10;50.70;;;;;;4975102;28;45338;-60
2023/05/21 04:30:03;;;;;;;3.90;3.55;;;22.10;50.70;;;;;;4978785;28;46448;-61
2023/05/21 04:32:32;;;;;;;4.05;3.67;;;22.10;50.70;;;;;;4957316;28;45325;-60
2023/05/21 04:34:59;;;;;;;3.85;3.50;;;22.10;50.70;;;;;;4959237;28;45139;-61
2023/05/21 04:37:26;;;;;;;3.80;3.50;;;22.10;50.70;;;;;;4955982;28;45312;-58
2023/05/21 04:39:53;;;;;;;3.65;3.35;;;22.10;50.70;;;;;;4958329;28;46302;-62
2023/05/21 04:42:22;;;;;;;3.85;3.42;;;22.10;50.70;;;;;;4956305;28;45694;-58
2023/05/21 04:44:48;;;;;;;3.80;3.50;;;22.10;50.70;;;;;;4966349;28;45214;-58
2023/05/21 04:47:14;;;;;;;4.18;3.78;;;22.10;50.70;;;;;;4939853;28;45645;-59
2023/05/21 04:49:39;;;;;;;4.38;3.65;;;22.10;50.70;;;;;;4980367;28;46036;-59
2023/05/21 04:52:07;;;;;;;4.05;3.67;;;22.10;50.70;;;;;;4956920;28;44984;-59
2023/05/21 04:54:32;;;;;;;3.63;3.33;;;22.10;50.70;;;;;;4961664;28;45024;-61
2023/05/21 04:56:58;;;;;;;3.60;3.30;;;22.10;50.70;;;;;;4943294;28;45322;-59
2023/05/21 04:59:24;;;;;;;3.85;3.55;;;22.10;50.90;;;;;;4980879;28;45349;-59
2023/05/21 05:01:49;;;;;;;3.70;3.40;;;22.10;50.80;;;;;;4968970;28;45869;-59
2023/05/21 05:04:15;;;;;;;3.42;3.03;;;22.10;50.70;;;;;;4976652;28;45292;-60
2023/05/21 05:06:40;;;;;;;3.75;3.45;;;22.10;50.70;;;;;;4974337;28;45632;-59
2023/05/21 05:09:06;;;;;;;4.07;3.67;;;22.10;50.80;;;;;;4979567;28;45833;-59
2023/05/21 05:11:50;;;;;;;3.58;3.28;;;22.10;50.80;;;;;;4973570;28;45176;-60
2023/05/21 05:14:36;;;;;;;3.70;3.40;;;22.10;50.80;;;;;;4973662;28;45956;-60
2023/05/21 05:17:23;;;;;;;3.63;3.33;;;22.10;50.80;;;;;;4968412;28;45359;-58
2023/05/21 05:20:10;;;;;;;3.78;3.45;;;22.10;50.80;;;;;;4958926;28;45134;-59
2023/05/21 05:22:56;;;;;;;3.35;3.05;;;22.10;50.80;;;;;;4971983;28;45831;-60
2023/05/21 05:25:41;;;;;;;3.72;3.40;;;22.10;50.80;;;;;;4975219;28;45216;-58
2023/05/21 05:28:27;;;;;;;3.75;3.38;;;22.10;50.80;;;;;;4974106;28;45493;-59
2023/05/21 05:31:13;;;;;;;3.88;3.47;;;22.10;50.80;;;;;;4975004;28;45244;-59
2023/05/21 05:33:59;;;;;;;3.40;3.10;;;22.10;50.80;;;;;;4956976;28;45335;-60
2023/05/21 05:36:45;;;;;;;3.60;3.30;;;22.10;50.80;;;;;;4972187;28;45363;-59
2023/05/21 05:39:10;;;;;;;4.03;3.63;;;22.10;51.40;;;;;;4978933;28;45678;-59
2023/05/21 05:41:36;;;;;;;3.80;3.50;;;22.10;50.80;;;;;;4974741;28;46048;-59
2023/05/21 05:44:02;;;;;;;3.70;3.40;;;22.10;50.70;;;;;;4980553;28;45608;-59
2023/05/21 05:46:28;;;;;;;3.60;3.30;;;22.10;50.70;;;;;;4950885;28;44699;-60
2023/05/21 05:48:53;;;;;;;4.03;3.63;;;22.10;50.70;;;;;;4955247;28;45550;-58
2023/05/21 05:51:19;;;;;;;3.72;3.33;;;22.10;50.70;;;;;;4972411;28;46173;-60
2023/05/21 05:53:45;;;;;;;3.47;3.17;;;22.10;50.60;;;;;;4959269;28;45313;-60
2023/05/21 05:56:10;;;;;;;3.80;3.40;;;22.10;50.60;;;;;;4974033;28;45056;-59
2023/05/21 05:58:36;;;;;;;3.33;3.00;;;22.20;50.60;;;;;;4958213;28;45023;-59
2023/05/21 06:01:01;;;;;;;3.45;3.10;;;22.10;50.60;;;;;;4968304;28;45565;-59
2023/05/21 06:03:28;;;;;;;3.70;3.35;;;22.10;50.60;;;;;;4940578;28;45354;-58
2023/05/21 06:05:53;;;;;;;4.18;3.78;;;22.10;50.60;;;;;;4937808;28;45122;-58
2023/05/21 06:08:19;;;;;;;3.10;2.80;;;22.20;50.60;;;;;;4958719;28;45631;-60
2023/05/21 06:10:44;;;;;;;3.72;3.40;;;22.10;50.60;;;;;;4954632;28;45966;-59
2023/05/21 06:13:10;;;;;;;3.63;3.33;;;22.20;50.60;;;;;;4931260;28;45364;-60
2023/05/21 06:15:36;;;;;;;4.30;3.63;;;22.10;50.50;;;;;;4953164;28;45636;-59
2023/05/21 06:18:01;;;;;;;4.22;3.78;;;22.20;50.60;;;;;;4941731;28;45225;-59
2023/05/21 06:20:28;;;;;;;4.30;3.65;;;22.20;50.60;;;;;;4953616;28;45977;-62
2023/05/21 06:22:54;;;;;;;4.15;3.75;;;22.20;50.60;;;;;;4940113;28;44986;-60
2023/05/21 06:25:19;;;;;;;3.15;2.85;;;22.20;50.60;;;;;;4939977;28;45347;-61
2023/05/21 06:27:45;;;;;;;3.55;3.25;;;22.20;50.60;;;;;;4942497;28;45773;-58
2023/05/21 06:30:11;;;;;;;4.00;3.60;;;22.20;50.70;;;;;;4923710;28;47074;-61
2023/05/21 06:32:36;;;;;;;3.65;3.33;;;22.20;50.70;;;;;;4934864;28;45010;-60
2023/05/21 06:35:03;;;;;;;4.13;3.72;;;22.20;50.60;;;;;;4940203;28;45138;-58
2023/05/21 06:37:29;;;;;;;4.03;3.63;;;22.20;50.60;;;;;;4937857;28;45713;-60
2023/05/21 06:39:55;;;;;;;3.78;3.40;;;22.20;50.60;;;;;;4924110;28;45427;-60
2023/05/21 06:42:20;;;;;;;4.10;3.60;;;22.20;50.60;;;;;;4954805;28;45209;-60
2023/05/21 06:44:46;;;;;;;4.20;3.80;;;22.20;50.60;;;;;;4961003;28;44946;-61
2023/05/21 06:47:11;;;;;;;3.97;3.58;;;22.30;50.60;;;;;;4950326;28;45218;-61
2023/05/21 06:49:37;;;;;;;3.55;3.22;;;22.20;50.50;;;;;;4942910;28;46315;-58
2023/05/21 06:52:02;;;;;;;3.50;3.20;;;22.20;50.50;;;;;;4935212;28;45527;-59
2023/05/21 06:54:28;;;;;;;3.70;3.33;;;22.30;50.50;;;;;;4942606;28;45071;-58
2023/05/21 06:56:53;;;;;;;3.95;3.55;;;22.30;50.50;;;;;;4955213;28;45330;-57
2023/05/21 06:59:19;;;;;;;4.32;3.92;;;22.30;50.50;;;;;;4959000;28;46058;-58
2023/05/21 07:01:45;;;;;;;3.83;3.53;;;22.30;50.50;;;;;;4958910;28;45204;-58
2023/05/21 07:04:10;;;;;;;3.88;3.47;;;22.30;50.40;;;;;;4977581;28;45593;-58
2023/05/21 07:06:36;;;;;;;4.15;3.75;;;22.40;50.40;;;;;;4951252;28;44978;-59
2023/05/21 07:09:04;;;;;;;4.80;3.85;;;22.30;51.00;;;;;;4959711;28;46296;-59
2023/05/21 07:11:31;;;;;;;4.47;4.07;;;22.40;50.40;;;;;;4972433;28;45180;-58
2023/05/21 07:13:57;;;;;;;5.25;4.13;;;22.40;50.40;;;;;;4979561;28;44833;-61
2023/05/21 07:16:23;;;;;;;4.28;3.88;;;22.40;50.30;;;;;;4951950;28;45163;-60
2023/05/21 07:18:48;;;;;;;4.38;3.97;;;22.40;49.90;;;;;;4979502;28;45951;-60
2023/05/21 07:21:14;;;;;;;4.50;4.05;;;22.40;50.30;;;;;;4974674;28;45321;-59
2023/05/21 07:23:39;;;;;;;4.53;4.13;;;22.40;50.30;;;;;;4979848;28;44725;-60
2023/05/21 07:26:05;;;;;;;4.40;3.92;;;22.40;50.30;;;;;;4975521;28;45146;-60
2023/05/21 07:28:30;;;;;;;5.18;3.83;;;22.50;50.30;;;;;;4946078;28;46922;-59
2023/05/21 07:30:56;;;;;;;4.22;3.83;;;22.50;50.30;;;;;;4954131;28;45290;-59
2023/05/21 07:33:22;;;;;;;4.25;3.85;;;22.50;50.30;;;;;;4975923;28;45413;-60
2023/05/21 07:35:47;;;;;;;6.03;4.03;;;22.50;50.20;;;;;;4929499;28;45039;-60
2023/05/21 07:38:13;;;;;;;4.10;3.70;;;22.50;50.20;;;;;;4976130;28;46260;-63
2023/05/21 07:40:38;;;;;;;4.78;4.07;;;22.50;50.10;;;;;;4957906;28;45009;-61
2023/05/21 07:43:04;;;;;;;5.53;4.35;;;22.60;50.10;;;;;;4978313;28;46156;-59
2023/05/21 07:45:30;;;;;;;4.32;3.85;;;22.60;50.10;;;;;;4972143;28;45302;-61
2023/05/21 07:47:55;;;;;;;4.05;3.65;;;22.60;50.20;;;;;;4928336;28;45314;-58
2023/05/21 07:50:21;;;;;;;4.18;3.75;;;22.60;50.10;;;;;;4972320;28;44977;-58
2023/05/21 07:52:46;;;;;;;4.68;4.10;;;22.60;50.10;;;;;;4960118;28;45041;-59
2023/05/21 07:55:12;;;;;;;4.97;4.40;;;22.60;50.10;;;;;;4949935;28;45295;-61
2023/05/21 07:57:38;;;;;;;4.78;4.32;;;22.60;50.10;;;;;;4931285;28;45606;-58
2023/05/21 08:00:08;;;;;;;5.70;4.47;;;22.70;50.10;;;;;;4977861;28;45221;-61
2023/05/21 08:02:34;;;;;;;5.95;4.63;;;22.70;50.00;;;;;;4955599;28;45666;-59
2023/05/21 08:05:00;;;;;;;5.78;4.30;;;22.70;50.00;;;;;;4941481;28;45516;-59
2023/05/21 08:07:26;;;;;;;4.85;4.35;;;22.70;50.00;;;;;;4933812;28;45977;-61
2023/05/21 08:09:52;;;;;;;4.53;4.13;;;22.70;50.00;;;;;;4938995;28;45364;-59
2023/05/21 08:12:18;;;;;;;6.50;4.60;;;22.80;50.10;;;;;;4932366;28;45877;-58
2023/05/21 08:14:44;;;;;;;4.60;4.10;;;22.80;50.00;;;;;;4943489;28;45404;-60
2023/05/21 08:17:12;;;;;;;4.97;4.15;;;22.80;50.00;;;;;;4950352;28;45146;-60
2023/05/21 08:19:38;;;;;;;4.78;4.28;;;22.80;50.00;;;;;;4922443;28;45097;-59
2023/05/21 08:22:07;;;;;;;5.45;4.30;;;22.80;50.00;;;;;;4968890;28;44995;-61
2023/05/21 08:24:32;;;;;;;5.30;4.75;;;22.80;50.00;;;;;;4956825;28;45479;-60
2023/05/21 08:26:58;;;;;;;5.78;4.68;;;22.80;49.90;;;;;;4954076;28;46435;-59
2023/05/21 08:29:23;;;;;;;5.00;4.50;;;22.80;49.90;;;;;;4940475;28;45807;-60
2023/05/21 08:31:49;;;;;;;5.05;4.55;;;22.90;49.90;;;;;;4932656;28;45277;-60
2023/05/21 08:34:15;;;;;;;5.47;4.40;;;22.90;49.90;;;;;;4956278;28;45762;-62
2023/05/21 08:36:42;;;;;;;5.68;4.45;;;22.90;49.90;;;;;;4953376;28;45658;-59
2023/05/21 08:39:07;;;;;;;5.28;4.78;;;22.90;49.90;;;;;;4973493;28;46080;-61
2023/05/21 08:41:34;;;;;;;5.50;4.90;;;22.90;49.80;;;;;;4948389;28;46365;-60
2023/05/21 08:44:00;;;;;;;5.53;4.95;;;23.00;49.90;;;;;;4973246;28;45186;-60
2023/05/21 08:46:33;;;;;;;4.93;4.43;;;23.00;49.80;;;;;;4949883;28;46314;-62
2023/05/21 08:49:01;;;;;;;5.25;4.75;;;23.00;49.80;;;;;;4939661;28;45200;-60
2023/05/21 08:51:27;;;;;;;5.65;5.05;;;23.00;49.80;;;;;;4935246;28;45674;-61
2023/05/21 08:53:54;;;;;;;6.55;4.60;;;23.00;49.80;;;;;;4973543;28;45851;-60
2023/05/21 08:56:20;;;;;;;4.75;4.30;;;23.00;49.70;;;;;;4935636;28;45107;-62
2023/05/21 08:58:45;;;;;;;5.55;4.78;;;23.10;49.70;;;;;;4943567;28;44893;-60
2023/05/21 09:01:11;;;;;;;6.03;4.85;;;23.10;49.70;;;;;;4936398;28;45324;-62
2023/05/21 09:03:39;;;;;;;5.38;4.85;;;23.20;49.90;;;;;;4961970;28;45313;-60
2023/05/21 09:06:05;;;;;;;5.13;4.63;;;23.20;49.80;;;;;;4957198;28;45918;-60
2023/05/21 09:08:31;;;;;;;6.88;5.10;;;23.20;49.70;;;;;;4946659;28;45413;-62
2023/05/21 09:10:57;;;;;;;5.97;5.20;;;23.20;49.70;;;;;;4939296;28;44827;-62
2023/05/21 09:13:22;;;;;;;6.05;4.55;;;23.30;49.70;;;;;;4944000;28;45685;-62
2023/05/21 09:15:48;;;;;;;6.03;4.65;;;23.30;49.70;;;;;;4916803;28;45252;-61
2023/05/21 09:18:14;;;;;;;6.00;4.90;;;23.30;49.70;;;;;;4947270;28;44748;-61
2023/05/21 09:20:39;;;;;;;5.38;4.88;;;23.40;49.70;;;;;;4940115;28;45340;-61
2023/05/21 09:23:11;;;;;;;6.32;4.65;;;23.40;49.70;;;;;;4944983;28;45030;-60
2023/05/21 09:25:36;;;;;;;5.50;4.75;;;23.40;49.70;;;;;;4937794;28;45848;-61
2023/05/21 09:28:02;;;;;;;5.65;5.00;;;23.40;49.70;;;;;;4963182;28;44839;-61
2023/05/21 09:30:28;;;;;;;7.22;5.28;;;23.50;49.70;;;;;;4954611;28;45397;-61
2023/05/21 09:32:57;;;;;;;5.65;4.78;;;23.50;49.70;;;;;;4927719;28;45256;-61
2023/05/21 09:35:22;;;;;;;6.03;5.43;;;23.50;49.70;;;;;;4937741;28;45692;-63
2023/05/21 09:37:49;;;;;;;6.50;4.50;;;23.50;49.60;;;;;;4922070;28;45896;-61
2023/05/21 09:40:16;;;;;;;5.65;5.05;;;23.50;49.60;;;;;;4955778;28;44945;-62
2023/05/21 09:42:51;;;;;;;6.38;5.32;;;23.60;49.60;;;;;;4943913;28;45024;-56
2023/05/21 09:45:27;;;;;;;5.75;5.20;;;23.60;49.60;;;;;;4925650;28;46119;-62
2023/05/21 09:47:54;;;;;;;6.30;5.47;;;23.60;49.60;;;;;;4959336;28;45034;-59
2023/05/21 09:50:22;;;;;;;7.97;5.35;;;23.60;49.70;;;;;;4953856;28;45542;-65
2023/05/21 09:52:49;;;;;;;5.95;4.95;;;23.60;49.50;;;;;;4960739;28;45175;-60
2023/05/21 09:55:15;;;;;;;6.05;5.18;;;23.70;49.60;;;;;;4956528;28;45425;-61
2023/05/21 09:57:41;;;;;;;6.32;5.15;;;23.70;49.60;;;;;;4943580;28;45705;-60
2023/05/21 10:00:09;;;;;;;6.68;5.03;;;23.70;49.50;;;;;;4960438;28;45227;-62
2023/05/21 10:02:34;;;;;;;6.00;5.40;;;23.70;49.50;;;;;;4922720;28;45687;-60
2023/05/21 10:05:00;;;;;;;5.90;5.30;;;23.70;49.50;;;;;;4939309;28;45868;-59
2023/05/21 10:07:25;;;;;;;6.57;5.68;;;23.70;49.40;;;;;;4934255;28;45048;-60
2023/05/21 10:09:55;;;;;;;6.85;5.25;;;23.70;49.40;;;;;;4958182;28;45522;-60
2023/05/21 10:12:22;;;;;;;6.00;5.45;;;23.70;49.40;;;;;;4929778;28;44982;-61
2023/05/21 10:15:19;;;;;;;5.60;5.10;;;23.70;49.40;;;;;;4928368;28;46553;-60
2023/05/21 10:17:45;;;;;;;7.97;5.80;;;23.80;49.40;;;;;;4923768;28;45302;-60
2023/05/21 10:20:11;;;;;;;7.65;5.30;;;23.80;49.40;;;;;;4957338;28;44993;-61
2023/05/21 10:22:37;;;;;;;5.88;5.28;;;23.80;49.40;;;;;;4937871;28;45718;-58
2023/05/21 10:25:04;;;;;;;5.93;5.32;;;23.80;49.30;;;;;;4940364;28;45404;-61
2023/05/21 10:27:30;;;;;;;7.65;5.53;;;23.80;49.30;;;;;;4938061;28;45228;-60
2023/05/21 10:29:56;;;;;;;7.35;5.95;;;23.80;49.30;;;;;;4945888;28;45928;-61
2023/05/21 10:32:22;;;;;;;6.65;5.95;;;23.80;49.30;;;;;;4931720;28;46393;-61
2023/05/21 10:34:47;;;;;;;5.80;5.13;;;23.80;49.30;;;;;;4943727;28;45588;-61
2023/05/21 10:37:13;;;;;;;5.88;5.28;;;23.80;49.30;;;;;;4919042;28;45022;-61
2023/05/21 10:39:39;;;;;;;6.38;5.18;;;23.80;49.30;;;;;;4940400;28;45527;-61
2023/05/21 10:42:16;;;;;;;5.90;5.38;;;23.80;49.30;;;;;;4935416;28;45178;-60
2023/05/21 10:44:56;;;;;;;7.25;6.03;;;23.80;49.20;;;;;;4941004;28;46013;-60
2023/05/21 10:47:49;;;;;;;6.20;5.50;;;23.80;49.30;;;;;;4949554;28;45288;-59
2023/05/21 10:50:23;;;;;;;6.65;5.30;;;23.90;49.30;;;;;;4955294;28;46680;-59
2023/05/21 10:53:03;;;;;;;6.20;5.30;;;23.80;49.30;;;;;;4959095;28;45631;-59
2023/05/21 10:56:00;;;;;;;5.97;5.22;;;23.90;49.40;;;;;;4952759;28;46102;-60
2023/05/21 10:59:04;;;;;;;6.00;5.40;;;23.80;49.30;;;;;;4927356;28;44869;-61
2023/05/21 11:01:32;;;;;;;6.50;5.65;;;23.80;49.30;;;;;;4938589;28;45064;-62
2023/05/21 11:03:58;;;;;;;7.10;5.40;;;23.80;49.40;;;;;;4957438;28;45617;-61
2023/05/21 11:06:27;;;;;;;5.97;5.40;;;23.90;49.40;;;;;;4970408;28;45917;-61
2023/05/21 11:08:53;;;;;;;6.20;5.28;;;23.90;49.40;;;;;;4944532;28;45697;-60
2023/05/21 11:11:57;;;;;;;5.95;5.40;;;23.90;49.40;;;;;;4951080;28;45812;-61
2023/05/21 11:14:36;;;;;;;6.15;5.55;;;23.90;49.40;;;;;;4912810;28;46146;-60
2023/05/21 11:17:09;;;;;;;6.68;5.40;;;24.00;49.40;;;;;;4908450;28;45600;-61
2023/05/21 11:19:35;;;;;;;6.40;5.57;;;24.00;49.40;;;;;;4944021;28;45037;-61
2023/05/21 11:22:04;;;;;;;6.15;5.55;;;24.00;49.30;;;;;;4974000;28;45656;-60
2023/05/21 11:24:30;;;;;;;6.75;5.70;;;24.00;49.30;;;;;;4960257;28;45065;-60
2023/05/21 11:27:00;;;;;;;7.00;5.35;;;24.00;49.30;;;;;;4936329;28;45345;-59
2023/05/21 11:29:39;;;;;;;6.05;5.45;;;24.10;49.30;;;;;;4978483;28;46858;-60
2023/05/21 11:32:05;;;;;;;7.15;5.18;;;24.10;49.30;;;;;;4969616;28;45362;-61
2023/05/21 11:34:38;;;;;;;5.72;5.13;;;24.10;49.40;;;;;;4977458;28;45817;-60
2023/05/21 11:37:16;;;;;;;7.43;5.15;;;24.10;49.30;;;;;;4974237;28;46181;-62
2023/05/21 11:39:42;;;;;;;6.43;5.50;;;24.10;49.30;;;;;;4978191;28;45545;-60
2023/05/21 11:42:07;;;;;;;6.70;5.20;;;24.20;49.30;;;;;;4952823;28;45149;-59
2023/05/21 11:44:40;;;;;;;6.75;5.47;;;24.20;49.20;;;;;;4973248;28;46954;-60
2023/05/21 11:47:06;;;;;;;5.43;4.85;;;24.20;49.30;;;;;;4965088;28;45500;-60
2023/05/21 11:49:32;;;;;;;6.75;5.72;;;24.20;49.30;;;;;;4955668;28;45109;-60
2023/05/21 11:52:00;;;;;;;8.95;5.95;;;24.20;49.20;;;;;;4954544;28;45566;-61
2023/05/21 11:54:28;;;;;;;6.20;5.60;;;24.20;49.20;;;;;;4974640;28;45988;-61
2023/05/21 11:56:53;;;;;;;6.35;5.18;;;24.20;49.30;;;;;;4953485;28;45855;-62
2023/05/21 11:59:19;;;;;;;5.65;5.15;;;24.20;49.30;;;;;;4945677;28;45034;-61
2023/05/21 12:01:45;;;;;;;5.90;5.15;;;24.30;49.30;;;;;;4928299;28;45076;-60
2023/05/21 12:04:11;;;;;;;5.65;5.00;;;24.30;50.00;;;;;;4939514;28;45639;-60
2023/05/21 12:06:41;;;;;;;6.20;5.60;;;24.30;49.30;;;;;;4950109;28;45932;-60
2023/05/21 12:09:10;;;;;;;5.85;5.22;;;24.30;49.30;;;;;;4939816;28;45076;-61
2023/05/21 12:11:40;;;;;;;5.68;5.07;;;24.30;49.30;;;;;;4934815;28;45004;-62
2023/05/21 12:14:11;;;;;;;5.85;5.25;;;24.30;49.30;;;;;;4938624;28;45115;-61
2023/05/21 12:16:38;;;;;;;6.05;5.45;;;24.40;49.30;;;;;;4928174;28;45876;-61
2023/05/21 12:19:04;;;;;;;6.43;5.32;;;24.30;49.30;;;;;;4957688;28;45805;-62
2023/05/21 12:21:32;;;;;;;6.68;5.93;;;24.30;49.30;;;;;;4937822;28;45507;-61
2023/05/21 12:23:57;;;;;;;6.70;5.28;;;24.40;49.30;;;;;;4944876;28;45478;-60
2023/05/21 12:26:26;;;;;;;5.32;4.85;;;24.40;49.30;;;;;;4944982;28;45199;-61
2023/05/21 12:28:55;;;;;;;5.72;4.78;;;24.40;49.30;;;;;;4959481;28;44996;-61
2023/05/21 12:31:21;;;;;;;6.20;5.03;;;24.40;49.30;;;;;;4936039;28;45532;-61
2023/05/21 12:33:50;;;;;;;6.00;5.50;;;24.40;49.30;;;;;;4960086;28;45516;-61
2023/05/21 12:36:25;;;;;;;7.85;4.97;;;24.40;49.20;;;;;;4939743;28;45436;-62
2023/05/21 12:38:51;;;;;;;5.50;5.00;;;24.40;49.20;;;;;;4959236;28;45674;-61
2023/05/21 12:41:17;;;;;;;7.03;5.35;;;24.40;49.20;;;;;;4957982;28;45537;-61
2023/05/21 12:43:42;;;;;;;5.82;5.22;;;24.40;49.20;;;;;;4929055;28;45547;-62
2023/05/21 12:46:11;;;;;;;5.35;4.85;;;24.50;49.20;;;;;;4935323;28;46208;-62
2023/05/21 12:48:37;;;;;;;6.18;5.35;;;24.50;49.20;;;;;;4957681;28;45884;-61
2023/05/21 12:51:03;;;;;;;6.57;5.93;;;24.50;49.20;;;;;;4955765;28;44973;-61
2023/05/21 12:53:39;;;;;;;7.30;5.60;;;24.50;49.20;;;;;;4942284;28;45092;-60
2023/05/21 12:56:09;;;;;;;5.60;5.05;;;24.50;49.20;;;;;;4939894;28;45229;-61
2023/05/21 12:58:37;;;;;;;6.30;5.70;;;24.50;49.10;;;;;;4956822;28;45549;-61
2023/05/21 13:01:05;;;;;;;5.57;4.82;;;24.50;49.10;;;;;;4936716;28;45279;-61
2023/05/21 13:03:31;;;;;;;5.63;5.00;;;24.50;49.10;;;;;;4961527;28;44993;-61
2023/05/21 13:05:58;;;;;;;6.35;5.50;;;24.60;49.10;;;;;;4952134;28;47199;-62
2023/05/21 13:08:24;;;;;;;5.93;5.32;;;24.60;49.00;;;;;;4978634;28;45738;-62
2023/05/21 13:10:49;;;;;;;5.90;5.30;;;24.60;49.00;;;;;;4955855;28;45584;-60
2023/05/21 13:13:15;;;;;;;6.55;5.85;;;24.60;49.00;;;;;;4980589;28;45003;-62
2023/05/21 13:15:40;;;;;;;5.22;4.72;;;24.60;49.00;;;;;;4948345;28;45308;-61
2023/05/21 13:18:06;;;;;;;6.88;5.03;;;24.60;49.00;;;;;;4977869;28;45031;-62
2023/05/21 13:20:31;;;;;;;5.47;4.75;;;24.60;49.00;;;;;;4973476;28;45201;-62
2023/05/21 13:22:57;;;;;;;5.60;5.07;;;24.60;49.00;;;;;;4958224;28;44683;-61
2023/05/21 13:25:26;;;;;;;6.28;5.28;;;24.60;49.00;;;;;;4973700;28;45533;-60
2023/05/21 13:27:54;;;;;;;5.90;5.13;;;24.60;49.00;;;;;;4958452;28;45025;-62
2023/05/21 13:30:20;;;;;;;5.68;5.07;;;24.60;48.90;;;;;;4969714;28;46768;-60
2023/05/21 13:32:46;;;;;;;5.65;4.90;;;24.60;48.90;;;;;;4974858;28;45296;-61
2023/05/21 13:35:12;;;;;;;5.38;4.88;;;24.60;49.00;;;;;;4956438;28;45522;-60
2023/05/21 13:37:38;;;;;;;5.60;5.10;;;24.60;48.90;;;;;;4959006;28;45053;-60
2023/05/21 13:40:13;;;;;;;6.07;5.13;;;24.60;48.90;;;;;;4958759;28;45038;-62
2023/05/21 13:42:39;;;;;;;5.80;5.20;;;24.60;48.90;;;;;;4946771;28;45209;-59
2023/05/21 13:45:09;;;;;;;5.88;4.80;;;24.60;48.90;;;;;;4963577;28;44833;-62
2023/05/21 13:47:35;;;;;;;6.45;5.15;;;24.60;49.00;;;;;;4948772;28;45062;-62
2023/05/21 13:50:00;;;;;;;5.35;4.85;;;24.60;48.90;;;;;;4954956;28;44982;-60
2023/05/21 13:52:26;;;;;;;5.88;5.18;;;24.60;48.80;;;;;;4972751;28;45469;-60
2023/05/21 13:54:52;;;;;;;7.60;5.22;;;24.60;48.90;;;;;;4942991;28;47099;-59
2023/05/21 13:57:17;;;;;;;6.43;5.00;;;24.60;48.90;;;;;;4957134;28;45317;-60
2023/05/21 13:59:43;;;;;;;5.63;4.85;;;24.60;48.90;;;;;;4960751;28;45527;-59
2023/05/21 14:02:09;;;;;;;5.40;4.80;;;24.60;48.90;;;;;;4951947;28;45331;-59
2023/05/21 14:04:34;;;;;;;5.35;4.85;;;24.60;48.80;;;;;;4934282;28;45773;-61
2023/05/21 14:07:00;;;;;;;5.40;4.88;;;24.60;48.80;;;;;;4926015;28;45116;-60
2023/05/21 14:09:26;;;;;;;5.50;5.00;;;24.60;48.90;;;;;;4938348;28;45648;-59
2023/05/21 14:11:52;;;;;;;5.28;4.70;;;24.60;48.80;;;;;;4933284;28;45282;-64
2023/05/21 14:14:18;;;;;;;5.43;4.70;;;24.60;48.80;;;;;;4939243;28;45611;-59
2023/05/21 14:16:47;;;;;;;6.80;5.13;;;24.60;48.80;;;;;;4923787;28;47636;-59
2023/05/21 14:19:13;;;;;;;5.93;5.32;;;24.70;48.80;;;;;;4937067;28;45658;-59
2023/05/21 14:21:38;;;;;;;6.15;5.20;;;24.70;48.90;;;;;;4931119;28;45893;-59
2023/05/21 14:24:04;;;;;;;6.30;5.00;;;24.70;49.00;;;;;;4957177;28;45272;-59
2023/05/21 14:26:30;;;;;;;8.40;5.35;;;24.70;49.00;;;;;;4932652;28;45916;-61
2023/05/21 14:28:55;;;;;;;5.28;4.78;;;24.70;48.90;;;;;;4934598;28;45210;-60
2023/05/21 14:31:22;;;;;;;7.07;4.78;;;24.70;48.90;;;;;;4926372;28;45844;-60
2023/05/21 14:33:47;;;;;;;5.80;5.20;;;24.70;49.00;;;;;;4936340;28;45022;-62
2023/05/21 14:36:13;;;;;;;5.80;5.20;;;24.70;49.00;;;;;;4932360;28;45697;-59
2023/05/21 14:38:39;;;;;;;7.15;5.03;;;24.70;49.00;;;;;;4939199;28;45091;-60
2023/05/21 14:41:05;;;;;;;5.82;5.10;;;24.70;49.10;;;;;;4932107;28;45877;-59
2023/05/21 14:43:31;;;;;;;8.00;4.95;;;24.70;49.10;;;;;;4959773;28;46895;-59
2023/05/21 14:45:57;;;;;;;5.85;5.20;;;24.70;49.00;;;;;;4915167;28;45451;-58
2023/05/21 14:48:23;;;;;;;6.50;5.40;;;24.70;48.90;;;;;;4939503;28;45499;-58
2023/05/21 14:50:52;;;;;;;6.72;4.90;;;24.70;49.00;;;;;;4952735;28;45448;-59
2023/05/21 14:53:18;;;;;;;5.72;4.95;;;24.70;49.00;;;;;;4947213;28;45701;-58
2023/05/21 14:55:43;;;;;;;6.55;5.18;;;24.70;49.00;;;;;;4932107;28;46015;-60
2023/05/21 14:58:09;;;;;;;9.30;4.88;;;24.70;48.90;;;;;;4955541;28;44911;-59
2023/05/21 15:00:35;;;;;;;5.82;5.22;;;24.70;48.80;;;;;;4916013;28;44729;-58
2023/05/21 15:03:01;;;;;;;5.80;5.30;;;24.70;48.80;;;;;;4973335;28;45300;-57
2023/05/21 15:05:26;;;;;;;7.22;5.47;;;24.70;48.80;;;;;;4971410;28;45758;-60
2023/05/21 15:07:58;;;;;;;5.93;5.32;;;24.70;48.70;;;;;;4973589;28;45361;-59
2023/05/21 15:10:24;;;;;;;6.65;5.30;;;24.70;48.60;;;;;;4965377;28;45423;-60
2023/05/21 15:12:50;;;;;;;8.23;5.18;;;24.70;48.60;;;;;;4976580;28;46630;-61
2023/05/21 15:15:16;;;;;;;6.80;5.10;;;24.70;48.50;;;;;;4952834;28;45201;-59
2023/05/21 15:17:41;;;;;;;6.22;5.25;;;24.70;48.40;;;;;;4957016;28;45257;-59
2023/05/21 15:20:08;;;;;;;5.80;5.07;;;24.70;48.40;;;;;;4973697;28;45013;-61
2023/05/21 15:22:33;;;;;;;5.70;4.75;;;24.70;48.30;;;;;;4940634;28;46206;-59
2023/05/21 15:24:59;;;;;;;5.00;4.50;;;24.70;48.20;;;;;;4957555;28;46412;-60
2023/05/21 15:27:25;;;;;;;6.22;4.70;;;24.70;48.20;;;;;;4972516;28;45016;-59
2023/05/21 15:29:50;;;;;;;5.57;4.78;;;24.70;48.20;;;;;;4959698;28;45911;-59
2023/05/21 15:32:16;;;;;;;5.43;4.88;;;24.70;48.20;;;;;;4948960;28;46137;-60
2023/05/21 15:34:42;;;;;;;5.72;5.22;;;24.70;48.30;;;;;;4978141;28;44964;-61
2023/05/21 15:37:08;;;;;;;5.72;4.45;;;24.70;48.10;;;;;;4955064;28;44965;-60
2023/05/21 15:39:33;;;;;;;5.68;5.07;;;24.70;48.20;;;;;;4958322;28;45291;-59
2023/05/21 15:41:59;;;;;;;7.22;5.38;;;24.70;48.20;;;;;;4952180;28;44958;-59
2023/05/21 15:44:25;;;;;;;5.75;5.15;;;24.70;48.20;;;;;;4976322;28;45010;-60
2023/05/21 15:46:52;;;;;;;7.00;4.90;;;24.70;48.10;;;;;;4939625;28;44722;-60
2023/05/21 15:49:18;;;;;;;5.63;5.05;;;24.70;48.10;;;;;;4976085;28;45685;-60
2023/05/21 15:51:45;;;;;;;5.95;4.78;;;24.70;48.10;;;;;;4937876;28;45787;-60